Time;durP1;ratioP1;P1;durP2;ratioP2;P2;SDS_P1;SDS_P2;PMS_P1;PMS_P2;Temp;Humidity;BMP_temperature;BMP_pressure;BME280_temperature;BME280_humidity;BME280_pressure;Samples;Min_cycle;Max_cycle;Signal;HPM_P1;HPM_P2
2022/03/26 00:01:34;;;;;;;36.90;24.70;;;;;;;12.86;37.83;99833.88;6949005;28;20571;-81
2022/03/26 00:04:55;;;;;;;34.20;21.83;;;;;;;12.81;37.95;99817.38;6949377;28;20225;-80
2022/03/26 00:08:18;;;;;;;38.73;24.40;;;;;;;11.73;39.91;99837.38;6949524;28;20291;-81
2022/03/26 00:11:40;;;;;;;34.03;22.47;;;;;;;12.48;38.65;99835.16;6949356;28;20222;-81
2022/03/26 00:15:04;;;;;;;37.80;24.23;;;;;;;11.50;40.78;99839.31;6949063;28;20203;-81
2022/03/26 00:18:26;;;;;;;35.13;22.67;;;;;;;12.08;39.58;99833.03;6948481;28;20236;-82
2022/03/26 00:21:48;;;;;;;34.00;22.00;;;;;;;12.50;38.43;99831.22;6949420;28;20219;-82
2022/03/26 00:25:13;;;;;;;35.77;22.80;;;;;;;12.18;39.05;99830.88;6948820;28;20256;-82
2022/03/26 00:28:36;;;;;;;35.67;24.00;;;;;;;11.12;41.14;99836.84;6948848;28;20235;-82
2022/03/26 00:31:57;;;;;;;35.93;23.20;;;;;;;10.12;43.36;99831.75;6948906;28;20637;-83
2022/03/26 00:35:19;;;;;;;31.00;21.50;;;;;;;10.62;42.74;99840.13;6948350;28;20208;-82
2022/03/26 00:38:41;;;;;;;35.40;23.20;;;;;;;11.22;41.51;99823.94;6952672;28;20233;-83
2022/03/26 00:42:04;;;;;;;34.13;21.97;;;;;;;11.55;40.36;99828.78;6953847;28;20289;-83
2022/03/26 00:45:26;;;;;;;40.17;22.77;;;;;;;11.55;40.75;99844.13;6970065;28;20227;-85
2022/03/26 00:48:48;;;;;;;37.63;23.00;;;;;;;11.04;41.71;99832.34;6969281;28;20228;-84
2022/03/26 00:52:09;;;;;;;31.53;21.63;;;;;;;10.80;42.78;99826.34;6970463;28;20229;-85
2022/03/26 00:55:31;;;;;;;34.30;22.07;;;;;;;11.35;41.30;99837.63;6974569;28;20297;-85
2022/03/26 00:58:54;;;;;;;33.23;20.53;;;;;;;10.82;42.79;99848.59;6967888;28;20224;-85
2022/03/26 01:02:16;;;;;;;31.67;20.07;;;;;;;10.73;42.89;99849.66;6947470;28;20205;-85
2022/03/26 01:05:38;;;;;;;32.10;21.60;;;;;;;10.92;42.34;99846.50;6947189;28;20228;-85
2022/03/26 01:09:00;;;;;;;29.57;19.97;;;;;;;10.81;42.09;99817.25;6947905;28;20212;-86
2022/03/26 01:12:22;;;;;;;28.80;20.17;;;;;;;10.89;42.89;99844.13;6948560;28;20216;-85
2022/03/26 01:15:45;;;;;;;32.60;20.77;;;;;;;10.73;43.36;99850.50;6948359;28;20187;-85
2022/03/26 01:19:06;;;;;;;33.30;20.70;;;;;;;10.90;42.21;99843.97;6947935;28;20212;-85
2022/03/26 01:22:28;;;;;;;34.33;21.77;;;;;;;10.68;42.68;99844.81;6948430;28;20223;-85
2022/03/26 01:25:49;;;;;;;35.30;23.10;;;;;;;10.78;42.58;99844.56;6947677;28;20228;-86
2022/03/26 01:29:12;;;;;;;34.60;20.87;;;;;;;10.41;43.05;99841.81;6948097;28;20238;-85
2022/03/26 01:32:36;;;;;;;32.77;22.07;;;;;;;10.36;43.15;99839.66;6936487;28;20632;-87
2022/03/26 01:35:57;;;;;;;33.07;22.80;;;;;;;10.17;43.49;99850.06;6934140;28;20658;-87
2022/03/26 01:39:20;;;;;;;34.17;20.13;;;;;;;10.52;42.96;99841.41;6937402;28;20228;-87
2022/03/26 01:42:42;;;;;;;26.17;19.13;;;;;;;10.51;42.99;99847.81;6938407;28;20213;-87
2022/03/26 01:46:04;;;;;;;33.27;21.20;;;;;;;9.07;44.91;99750.72;6938606;28;20232;-87
2022/03/26 01:49:27;;;;;;;32.73;20.90;;;;;;;9.55;43.94;99772.91;6938763;28;20720;-87
2022/03/26 01:52:49;;;;;;;32.70;21.53;;;;;;;9.58;45.45;99842.56;6940215;28;20215;-87
2022/03/26 01:56:10;;;;;;;31.20;20.37;;;;;;;9.61;45.01;99817.97;6938184;28;20210;-87
2022/03/26 01:59:33;;;;;;;29.17;19.63;;;;;;;9.98;43.80;99842.41;6940676;28;20231;-89
2022/03/26 02:02:56;;;;;;;34.33;20.83;;;;;;;9.11;45.92;99812.06;6942573;28;20234;-88
2022/03/26 02:06:22;;;;;;;32.70;20.37;;;;;;;9.20;45.33;99782.28;6940933;28;20220;-89
2022/03/26 02:09:44;;;;;;;29.47;19.77;;;;;;;9.21;46.26;99843.16;6940981;28;20705;-90
2022/03/26 02:13:06;;;;;;;31.93;22.13;;;;;;;9.11;45.76;99810.22;6941625;28;20203;-87
2022/03/26 02:16:27;;;;;;;32.47;19.83;;;;;;;9.42;44.94;99821.91;6938865;28;20204;-88
2022/03/26 02:19:51;;;;;;;34.90;21.27;;;;;;;9.12;45.82;99832.59;6940987;28;20237;-89
2022/03/26 02:23:12;;;;;;;29.87;20.40;;;;;;;8.89;46.07;99787.75;6945235;28;20725;-89
2022/03/26 02:26:34;;;;;;;30.93;20.73;;;;;;;9.03;46.09;99830.94;6943414;28;20235;-89
2022/03/26 02:29:56;;;;;;;29.90;20.10;;;;;;;8.64;47.11;99795.00;6943324;28;20234;-89
2022/03/26 02:33:18;;;;;;;26.93;18.63;;;;;;;8.78;47.31;99826.56;6940397;28;20212;-89
2022/03/26 02:36:41;;;;;;;29.77;19.17;;;;;;;8.96;46.66;99837.16;6939394;28;20214;-89
2022/03/26 02:40:06;;;;;;;31.73;20.73;;;;;;;8.76;47.45;99842.03;6940506;28;20204;-89
2022/03/26 02:43:28;;;;;;;32.07;20.10;;;;;;;8.37;48.18;99821.38;6942208;28;20211;-90
2022/03/26 02:46:50;;;;;;;29.83;19.70;;;;;;;9.13;46.18;99844.19;6942106;28;20234;-89
2022/03/26 02:50:12;;;;;;;30.57;19.83;;;;;;;8.62;46.70;99775.53;6943084;28;20253;-89
2022/03/26 02:53:35;;;;;;;31.00;19.40;;;;;;;8.54;46.42;99762.06;6941733;28;20203;-89
2022/03/26 02:56:57;;;;;;;28.10;19.07;;;;;;;9.00;46.00;99815.13;6937758;28;20207;-89
2022/03/26 03:00:18;;;;;;;30.47;19.97;;;;;;;8.81;46.08;99775.16;6939724;28;20208;-89
2022/03/26 03:03:40;;;;;;;27.90;19.50;;;;;;;8.90;46.30;99844.03;6940709;28;20208;-89
2022/03/26 03:07:02;;;;;;;34.73;20.17;;;;;;;8.98;45.78;99848.56;6938763;28;20239;-89
2022/03/26 03:10:25;;;;;;;33.27;20.93;;;;;;;8.42;47.47;99844.03;6939720;28;20223;-89
2022/03/26 03:13:47;;;;;;;30.90;20.53;;;;;;;8.44;47.13;99819.69;6941320;28;20214;-88
2022/03/26 03:17:09;;;;;;;32.63;20.33;;;;;;;8.64;47.15;99845.22;6943777;28;20287;-88
2022/03/26 03:20:31;;;;;;;33.47;20.67;;;;;;;7.34;48.69;99729.63;6945980;28;20291;-88
2022/03/26 03:23:56;;;;;;;29.17;19.90;;;;;;;7.89;48.63;99799.75;6946117;28;20211;-89
2022/03/26 03:27:23;;;;;;;28.60;19.17;;;;;;;8.77;47.11;99834.81;6944267;28;20579;-89
2022/03/26 03:30:50;;;;;;;32.63;21.53;;;;;;;8.52;47.16;99836.66;6944432;28;20235;-89
2022/03/26 03:34:12;;;;;;;32.73;20.50;;;;;;;8.38;47.43;99836.47;6944485;28;20208;-88
2022/03/26 03:37:45;;;;;;;33.03;20.47;;;;;;;8.42;47.25;99813.66;6943801;28;20239;-88
2022/03/26 03:41:08;;;;;;;30.77;19.90;;;;;;;7.70;48.24;99754.38;6944320;28;20217;-89
2022/03/26 03:44:53;;;;;;;33.90;19.37;;;;;;;7.93;48.90;99836.00;6944516;28;20204;-88
2022/03/26 03:52:06;;;;;;;32.43;19.37;;;;;;;8.00;49.13;99834.34;6937679;28;20211;-89
2022/03/26 03:55:28;;;;;;;29.10;19.53;;;;;;;8.30;47.83;99839.97;6943090;28;20238;-88
2022/03/26 03:58:54;;;;;;;32.70;20.07;;;;;;;7.98;47.94;99799.63;6943302;28;20250;-89
2022/03/26 04:02:41;;;;;;;28.00;19.13;;;;;;;8.27;47.85;99834.97;6943483;28;20887;-87
2022/03/26 04:06:06;;;;;;;30.17;19.27;;;;;;;7.71;48.48;99799.88;6944405;28;20231;-87
2022/03/26 04:09:30;;;;;;;31.83;19.63;;;;;;;7.27;47.96;99701.78;6945691;28;20227;-89
2022/03/26 04:12:59;;;;;;;31.47;19.43;;;;;;;8.21;47.80;99826.72;6945894;28;20218;-90
2022/03/26 04:16:21;;;;;;;29.23;19.47;;;;;;;7.98;47.94;99825.63;6945338;28;20207;-88
2022/03/26 04:54:32;;;;;;;30.33;18.23;;;;;;;7.62;48.91;99842.94;6595866;30;21019;-89
2022/03/26 04:58:09;;;;;;;26.73;18.83;;;;;;;7.76;48.94;99842.31;6637491;29;20234;-88
2022/03/26 05:01:31;;;;;;;32.83;21.13;;;;;;;7.26;49.43;99804.69;6681786;29;20219;-89
2022/03/26 05:04:54;;;;;;;30.23;19.63;;;;;;;7.33;49.91;99859.41;6680816;29;20211;-89
2022/03/26 05:08:18;;;;;;;33.73;19.93;;;;;;;6.97;50.93;99865.03;6681583;29;20226;-89
2022/03/26 05:11:42;;;;;;;35.23;20.10;;;;;;;7.06;50.92;99853.34;6681362;29;20233;-90
2022/03/26 05:15:37;;;;;;;40.67;24.27;;;;;;;7.49;49.33;99862.16;6667955;29;20210;-88
2022/03/26 05:35:46;;;;;;;33.80;20.37;;;;;;;7.55;49.30;99869.56;6903393;28;20196;-88
2022/03/26 05:39:20;;;;;;;30.80;20.57;;;;;;;7.42;49.47;99865.66;6944901;28;20227;-89
2022/03/26 06:13:46;;;;;;;33.97;20.30;;;;;;;7.42;50.09;99913.97;6516585;30;20220;-86
2022/03/26 06:17:09;;;;;;;34.77;20.07;;;;;;;7.79;49.92;99920.69;6611136;30;20233;-83
2022/03/26 06:20:35;;;;;;;32.57;20.07;;;;;;;8.11;49.06;99911.94;6602455;30;20282;-86
2022/03/26 06:23:58;;;;;;;29.67;19.53;;;;;;;8.86;46.15;99891.13;6622215;30;20216;-81
2022/03/26 06:27:20;;;;;;;30.27;19.97;;;;;;;8.63;47.41;99933.09;6635835;29;20812;-82
2022/03/26 06:30:41;;;;;;;33.07;21.10;;;;;;;8.72;47.08;99907.91;6724414;29;20694;-81
2022/03/26 06:34:04;;;;;;;34.57;20.47;;;;;;;8.92;46.82;99935.31;6761046;29;20312;-81
2022/03/26 06:37:26;;;;;;;29.50;20.67;;;;;;;9.37;46.51;99923.00;6810613;29;20313;-83
2022/03/26 06:40:48;;;;;;;31.27;19.17;;;;;;;9.98;44.25;99915.97;6888440;28;20199;-81
2022/03/26 06:44:13;;;;;;;29.67;19.60;;;;;;;10.52;43.31;99936.59;6965507;28;20757;-84
2022/03/26 06:47:35;;;;;;;30.27;19.10;;;;;;;10.96;42.37;99934.97;6947596;28;20232;-82
2022/03/26 06:50:58;;;;;;;26.57;19.60;;;;;;;11.11;41.35;99924.25;6962675;28;20253;-81
2022/03/26 06:54:20;;;;;;;28.97;20.33;;;;;;;10.61;43.39;99940.94;6966913;28;20199;-83
2022/03/26 06:57:43;;;;;;;31.37;21.37;;;;;;;10.73;42.87;99934.13;6955099;28;20224;-83
2022/03/26 07:01:04;;;;;;;28.10;19.87;;;;;;;10.43;43.77;99944.94;6957926;28;20203;-81
2022/03/26 07:04:26;;;;;;;29.97;19.80;;;;;;;11.25;42.40;99945.03;6959978;28;20222;-80
2022/03/26 07:07:49;;;;;;;30.77;21.40;;;;;;;11.39;41.93;99925.34;6959136;28;20410;-81
2022/03/26 07:11:11;;;;;;;29.70;21.37;;;;;;;11.83;41.28;99939.78;6958260;28;20563;-81
2022/03/26 07:14:32;;;;;;;31.77;21.07;;;;;;;12.20;39.83;99945.06;6954112;28;20700;-80
2022/03/26 07:17:54;;;;;;;33.93;22.27;;;;;;;12.10;41.62;99944.53;6955577;28;20224;-80
2022/03/26 07:21:15;;;;;;;29.87;21.37;;;;;;;12.28;40.73;99953.91;6954983;28;20209;-80
2022/03/26 07:24:38;;;;;;;32.70;22.83;;;;;;;12.09;40.67;99946.38;6954513;28;20215;-80
2022/03/26 07:28:00;;;;;;;31.67;21.70;;;;;;;11.91;41.70;99951.31;6953612;28;20262;-79
2022/03/26 07:31:22;;;;;;;33.07;21.63;;;;;;;13.23;39.23;99944.63;6950879;28;20265;-80
2022/03/26 07:34:43;;;;;;;30.20;20.80;;;;;;;13.76;37.48;99949.44;6950862;28;20580;-79
2022/03/26 07:38:05;;;;;;;36.27;23.77;;;;;;;13.41;38.67;99956.69;6949695;28;20228;-79
2022/03/26 07:41:28;;;;;;;35.23;23.13;;;;;;;13.71;37.84;99941.06;6950711;28;20317;-79
2022/03/26 07:44:50;;;;;;;30.80;23.00;;;;;;;14.33;37.13;99950.06;6949796;28;20214;-79
2022/03/26 07:48:11;;;;;;;32.23;20.33;;;;;;;13.63;36.81;99943.94;6947525;28;20239;-79
2022/03/26 07:51:33;;;;;;;30.53;21.20;;;;;;;13.76;36.94;99947.56;6947481;28;20207;-78
2022/03/26 07:54:55;;;;;;;30.50;20.53;;;;;;;13.88;36.98;99947.88;6946160;28;20211;-79
2022/03/26 07:58:18;;;;;;;30.50;20.53;;;;;;;14.48;36.33;99937.16;6944509;28;20361;-79
2022/03/26 08:01:39;;;;;;;30.17;21.63;;;;;;;14.27;36.41;99934.59;6945787;28;20656;-79
2022/03/26 08:05:01;;;;;;;32.30;21.93;;;;;;;14.32;36.02;99948.34;6945736;28;20292;-79
2022/03/26 08:08:22;;;;;;;32.77;21.17;;;;;;;14.52;35.32;99941.97;6944145;28;20695;-79
2022/03/26 08:11:45;;;;;;;31.37;21.33;;;;;;;14.77;35.28;99943.13;6944949;28;20203;-79
2022/03/26 08:15:09;;;;;;;30.27;20.30;;;;;;;15.09;34.45;99952.38;6945170;28;20332;-79
2022/03/26 08:18:31;;;;;;;30.40;20.87;;;;;;;15.31;34.27;99932.16;6943438;28;20310;-79
2022/03/26 08:21:52;;;;;;;28.47;20.60;;;;;;;15.60;34.03;99956.22;6943001;28;20207;-79
2022/03/26 08:26:19;;;;;;;31.43;22.10;;;;;;;15.98;33.37;99944.47;6940949;28;20203;-79
2022/03/26 08:28:57;;;;;;;30.10;21.00;;;;;;;16.45;33.23;99927.84;6941011;28;20245;-79
2022/03/26 08:32:19;;;;;;;33.53;21.20;;;;;;;16.16;33.16;99952.00;6939974;28;20202;-78
2022/03/26 08:35:42;;;;;;;34.03;22.67;;;;;;;16.75;33.13;99944.47;6943645;28;20830;-79
2022/03/26 08:39:03;;;;;;;32.87;21.00;;;;;;;17.99;32.18;99958.88;6942283;28;20316;-79
2022/03/26 08:42:25;;;;;;;33.63;22.07;;;;;;;17.40;31.64;99960.47;6939861;28;20294;-78
2022/03/26 08:45:46;;;;;;;34.37;23.63;;;;;;;17.52;31.36;99950.50;6939944;28;20293;-80
2022/03/26 08:49:09;;;;;;;30.23;23.07;;;;;;;18.17;30.03;99958.91;6940462;28;20604;-77
2022/03/26 08:52:31;;;;;;;30.73;21.63;;;;;;;18.35;29.45;99955.41;6934395;28;20308;-78
2022/03/26 08:55:52;;;;;;;37.33;23.60;;;;;;;18.69;29.21;99963.81;6939740;28;20254;-78
2022/03/26 08:59:14;;;;;;;29.50;22.60;;;;;;;18.89;28.70;99953.47;6932499;28;20302;-79
2022/03/26 09:02:36;;;;;;;30.00;22.60;;;;;;;18.80;29.19;99952.13;6939808;28;20201;-78
2022/03/26 09:05:58;;;;;;;32.87;23.87;;;;;;;18.96;29.52;99948.75;6933372;28;20246;-79
2022/03/26 09:09:20;;;;;;;31.13;22.90;;;;;;;19.30;28.39;99947.25;6938982;28;20266;-79
2022/03/26 09:12:42;;;;;;;33.10;22.60;;;;;;;19.28;28.58;99947.47;6936077;28;20308;-77
2022/03/26 09:16:03;;;;;;;30.10;22.53;;;;;;;20.19;28.12;99943.22;6933034;28;20228;-78
2022/03/26 09:19:25;;;;;;;34.20;22.60;;;;;;;20.72;26.71;99932.03;6937363;28;20271;-76
2022/03/26 09:22:48;;;;;;;38.30;25.93;;;;;;;19.37;27.98;99905.06;6939242;28;20203;-79
2022/03/26 09:26:11;;;;;;;68.53;46.53;;;;;;;20.11;28.16;99896.19;6937823;28;20574;-78
2022/03/26 09:29:32;;;;;;;79.87;42.03;;;;;;;20.90;27.00;99931.88;6936008;28;20287;-77
2022/03/26 09:32:54;;;;;;;34.63;23.70;;;;;;;20.65;27.81;99931.34;6938305;28;20279;-78
2022/03/26 09:36:16;;;;;;;31.97;23.60;;;;;;;20.26;27.18;99922.00;6938220;28;20747;-77
2022/03/26 09:39:39;;;;;;;31.63;22.33;;;;;;;20.60;27.46;99899.19;6938535;28;20232;-78
2022/03/26 09:43:01;;;;;;;35.37;23.27;;;;;;;21.09;27.14;99917.72;6935526;28;20237;-77
2022/03/26 09:46:23;;;;;;;35.17;23.63;;;;;;;21.44;27.22;99924.69;6938093;28;20232;-76
2022/03/26 09:49:45;;;;;;;36.20;24.17;;;;;;;21.27;25.85;99917.50;6934594;28;20259;-76
2022/03/26 09:53:07;;;;;;;41.33;29.47;;;;;;;22.21;25.88;99912.78;6932564;28;20200;-76
2022/03/26 09:56:30;;;;;;;60.57;36.77;;;;;;;22.41;25.33;99909.44;6938653;28;20294;-76
2022/03/26 09:59:51;;;;;;;49.73;31.20;;;;;;;22.97;24.49;99900.84;6938816;28;20308;-76
2022/03/26 10:03:13;;;;;;;31.60;23.80;;;;;;;22.09;21.99;99908.47;6936617;28;20236;-77
2022/03/26 10:06:35;;;;;;;32.07;22.47;;;;;;;20.85;23.17;99894.19;6938250;28;20212;-75
2022/03/26 10:09:56;;;;;;;33.07;22.17;;;;;;;21.45;23.43;99903.56;6939282;28;20317;-76
2022/03/26 10:13:38;;;;;;;34.20;22.50;;;;;;;20.97;24.18;99896.91;6939009;28;20222;-76
2022/03/26 10:17:09;;;;;;;32.87;22.67;;;;;;;21.28;21.87;99889.00;6937036;28;20195;-77
2022/03/26 10:20:30;;;;;;;31.33;22.80;;;;;;;21.58;21.88;99887.59;6930831;28;20250;-76
2022/03/26 10:23:53;;;;;;;29.70;21.40;;;;;;;21.78;22.55;99909.91;6939252;28;20203;-77
2022/03/26 10:27:15;;;;;;;30.43;21.60;;;;;;;21.56;21.94;99889.78;6937895;28;20358;-77
2022/03/26 10:34:19;;;;;;;32.07;22.27;;;;;;;21.28;22.75;99875.28;6937525;28;20724;-77
2022/03/26 10:37:45;;;;;;;33.37;23.97;;;;;;;22.27;21.21;99889.78;6937528;28;20228;-77
2022/03/26 10:41:08;;;;;;;32.60;22.63;;;;;;;23.30;21.21;99875.91;6939682;28;20203;-77
2022/03/26 10:44:31;;;;;;;28.70;21.97;;;;;;;24.53;19.48;99865.16;6939327;28;20681;-79
2022/03/26 10:47:55;;;;;;;30.13;21.73;;;;;;;23.94;19.76;99861.84;6940972;28;20234;-76
2022/03/26 10:51:17;;;;;;;31.70;23.33;;;;;;;22.12;20.76;99864.03;6942048;28;20203;-76
2022/03/26 10:54:39;;;;;;;27.07;20.87;;;;;;;22.27;20.79;99858.72;6939792;28;20611;-76
2022/03/26 10:58:03;;;;;;;32.47;21.53;;;;;;;23.20;19.83;99859.28;6936003;28;20248;-78
2022/03/26 11:01:25;;;;;;;26.37;20.63;;;;;;;22.77;18.91;99820.88;6943216;28;20228;-77
2022/03/26 11:04:48;;;;;;;31.27;20.13;;;;;;;22.34;19.87;99853.84;6943353;28;20342;-78
2022/03/26 11:08:10;;;;;;;28.53;20.33;;;;;;;23.71;19.64;99858.63;6943839;28;20264;-77
2022/03/26 11:11:32;;;;;;;31.73;22.37;;;;;;;24.02;19.42;99855.00;6944720;28;20298;-78
2022/03/26 11:14:54;;;;;;;30.17;21.43;;;;;;;24.76;18.96;99850.94;6946581;28;20223;-78
2022/03/26 11:18:47;;;;;;;29.53;21.43;;;;;;;24.29;18.26;99848.25;6943846;28;20261;-78
2022/03/26 11:22:35;;;;;;;30.63;22.17;;;;;;;23.92;17.76;99846.66;6932446;28;20201;-78
2022/03/26 11:26:14;;;;;;;26.50;19.77;;;;;;;22.71;18.78;99847.47;6916187;28;20206;-78
2022/03/26 11:29:46;;;;;;;27.63;19.53;;;;;;;22.98;18.17;99837.31;6915162;28;20240;-78
2022/03/26 11:33:11;;;;;;;27.03;19.10;;;;;;;22.62;19.73;99837.19;6917112;28;20285;-78
2022/03/26 11:36:33;;;;;;;26.73;19.10;;;;;;;22.94;18.85;99840.81;6918687;28;20856;-78
2022/03/26 11:39:57;;;;;;;26.33;18.37;;;;;;;23.25;18.67;99838.13;6943735;28;20219;-78
2022/03/26 11:43:21;;;;;;;27.63;19.07;;;;;;;23.66;18.88;99826.34;6938150;28;20209;-78
2022/03/26 11:50:42;;;;;;;25.50;17.83;;;;;;;22.86;18.34;99824.78;6917056;28;20180;-78
2022/03/26 11:54:06;;;;;;;24.10;17.73;;;;;;;22.09;19.43;99835.13;6941780;28;20206;-78
2022/03/26 11:57:29;;;;;;;21.73;17.67;;;;;;;22.47;19.30;99821.34;6942844;28;20234;-77
2022/03/26 12:00:55;;;;;;;24.37;18.50;;;;;;;23.29;17.57;99814.50;6942775;28;20203;-78
2022/03/26 12:04:18;;;;;;;26.23;16.90;;;;;;;24.53;18.31;99807.25;6935547;28;20741;-78
2022/03/26 12:07:40;;;;;;;18.80;15.50;;;;;;;23.83;16.32;99812.44;6942454;28;20231;-78
2022/03/26 12:11:02;;;;;;;24.00;16.53;;;;;;;22.11;17.98;99808.22;6941481;28;20241;-78
2022/03/26 12:14:24;;;;;;;20.67;15.10;;;;;;;22.84;17.14;99800.28;6941770;28;20208;-77
2022/03/26 12:17:47;;;;;;;19.30;14.07;;;;;;;23.99;15.44;99804.00;6944426;28;20320;-78
2022/03/26 12:21:10;;;;;;;16.90;13.30;;;;;;;23.67;14.99;99803.22;6941766;28;20206;-77
2022/03/26 12:24:32;;;;;;;17.00;13.13;;;;;;;24.10;14.80;99789.19;6942099;28;20305;-77
2022/03/26 12:27:53;;;;;;;16.97;12.97;;;;;;;23.17;15.79;99802.84;6942087;28;20228;-78
2022/03/26 12:31:17;;;;;;;18.57;13.63;;;;;;;23.35;15.95;99794.19;6943140;28;20223;-78
2022/03/26 12:34:55;;;;;;;16.83;13.40;;;;;;;22.95;15.62;99784.75;6942979;28;20214;-78
2022/03/26 12:38:17;;;;;;;18.03;13.13;;;;;;;23.53;15.34;99787.41;6938607;28;20262;-78
2022/03/26 12:41:39;;;;;;;15.67;12.97;;;;;;;24.09;15.01;99778.41;6924858;28;20206;-78
2022/03/26 12:45:00;;;;;;;17.40;12.27;;;;;;;23.59;16.39;99781.69;6941912;28;20207;-78
2022/03/26 12:48:26;;;;;;;17.40;12.87;;;;;;;23.82;16.28;99769.41;6940821;28;20703;-78
2022/03/26 12:51:49;;;;;;;18.27;14.17;;;;;;;22.61;17.54;99769.56;6927576;28;20200;-78
2022/03/26 12:55:11;;;;;;;20.53;14.93;;;;;;;23.21;16.27;99776.47;6912165;28;20211;-78
2022/03/26 13:02:14;;;;;;;19.27;14.20;;;;;;;23.82;16.35;99766.66;6933881;28;20200;-77
2022/03/26 13:05:38;;;;;;;22.30;15.30;;;;;;;23.78;15.64;99766.38;6940887;28;20857;-77
2022/03/26 13:09:00;;;;;;;22.10;15.23;;;;;;;24.53;15.74;99750.16;6941426;28;20239;-76
2022/03/26 13:12:25;;;;;;;21.57;14.83;;;;;;;25.44;15.47;99754.69;6941251;28;20311;-76
2022/03/26 13:16:01;;;;;;;18.50;13.67;;;;;;;25.54;15.05;99751.91;6940444;28;20302;-76
2022/03/26 13:19:22;;;;;;;21.27;14.77;;;;;;;24.06;15.73;99752.22;6940887;28;20227;-79
2022/03/26 13:22:45;;;;;;;31.53;22.67;;;;;;;23.42;16.29;99753.50;6939359;28;20212;-76
2022/03/26 13:26:07;;;;;;;34.80;24.10;;;;;;;23.10;16.65;99755.44;6939739;28;20602;-77
2022/03/26 13:29:30;;;;;;;22.73;15.93;;;;;;;23.63;16.53;99748.94;6941522;28;20257;-77
2022/03/26 13:33:02;;;;;;;18.93;14.37;;;;;;;23.82;17.41;99737.22;6940471;28;20220;-76
2022/03/26 13:36:28;;;;;;;21.07;15.37;;;;;;;24.50;17.27;99731.44;6939889;28;20232;-77
2022/03/26 13:40:01;;;;;;;18.00;14.40;;;;;;;22.59;17.31;99747.81;6940686;28;20698;-76
2022/03/26 13:43:24;;;;;;;20.23;14.37;;;;;;;23.89;16.93;99734.25;6940109;28;20195;-78
2022/03/26 13:46:45;;;;;;;20.60;14.03;;;;;;;24.85;15.91;99734.28;6939609;28;20245;-78
2022/03/26 13:50:09;;;;;;;20.27;15.27;;;;;;;24.18;16.64;99733.53;6940593;28;20235;-78
2022/03/26 13:53:39;;;;;;;19.80;13.83;;;;;;;24.23;15.77;99717.00;6939696;28;20207;-77
2022/03/26 13:57:03;;;;;;;18.50;14.10;;;;;;;24.56;16.48;99722.06;6937180;28;20248;-77
2022/03/26 14:00:27;;;;;;;18.53;13.97;;;;;;;23.70;15.47;99711.81;6939930;28;20203;-78
2022/03/26 14:03:53;;;;;;;19.87;12.87;;;;;;;23.32;15.77;99722.31;6942146;28;20206;-78
2022/03/26 14:07:14;;;;;;;19.33;13.77;;;;;;;23.87;16.00;99709.72;6967130;28;20230;-77
2022/03/26 14:10:38;;;;;;;17.70;13.73;;;;;;;23.16;16.25;99715.91;6967846;28;20231;-77
2022/03/26 14:14:01;;;;;;;17.53;13.47;;;;;;;23.36;17.06;99720.72;6967514;28;20305;-77
2022/03/26 14:17:22;;;;;;;18.03;13.13;;;;;;;24.03;16.37;99705.94;6971098;28;20627;-78
2022/03/26 14:20:44;;;;;;;20.20;13.10;;;;;;;23.14;15.39;99714.47;6973416;28;20344;-77
2022/03/26 14:24:06;;;;;;;20.30;13.40;;;;;;;23.47;17.12;99708.63;6972608;28;20243;-77
2022/03/26 14:27:28;;;;;;;17.73;13.63;;;;;;;24.11;15.27;99699.88;6972138;28;20232;-78
2022/03/26 14:30:51;;;;;;;16.47;11.93;;;;;;;24.61;14.54;99705.53;6973178;28;20694;-77
2022/03/26 14:34:12;;;;;;;20.53;11.80;;;;;;;24.00;14.75;99684.41;6972287;28;20248;-77
2022/03/26 14:37:34;;;;;;;18.37;11.83;;;;;;;23.68;16.08;99705.75;6972359;28;20617;-78
2022/03/26 14:40:56;;;;;;;16.50;11.97;;;;;;;24.28;15.20;99699.66;6973160;28;20556;-78
2022/03/26 14:44:18;;;;;;;17.37;11.03;;;;;;;24.03;15.14;99699.59;6972896;28;20304;-77
2022/03/26 14:47:41;;;;;;;14.53;11.13;;;;;;;24.29;14.93;99682.84;6972010;28;20229;-77
2022/03/26 14:51:02;;;;;;;17.33;10.33;;;;;;;24.47;15.13;99679.56;6972368;28;20207;-77
2022/03/26 14:54:24;;;;;;;16.83;11.07;;;;;;;23.62;15.42;99692.22;6971832;28;20339;-77
2022/03/26 14:57:46;;;;;;;14.33;11.17;;;;;;;24.02;15.57;99675.91;6971684;28;20228;-76
2022/03/26 15:01:07;;;;;;;18.00;13.47;;;;;;;24.14;15.08;99687.50;6972659;28;20230;-77
2022/03/26 15:04:30;;;;;;;18.97;11.90;;;;;;;22.70;16.21;99661.59;6972438;28;20241;-77
2022/03/26 15:07:52;;;;;;;16.23;13.67;;;;;;;23.47;16.22;99661.84;6971229;28;20259;-77
2022/03/26 15:11:14;;;;;;;15.27;11.50;;;;;;;24.04;15.60;99682.78;6972271;28;20675;-76
2022/03/26 15:14:36;;;;;;;15.10;10.70;;;;;;;23.83;15.62;99682.97;6971529;28;20352;-76
2022/03/26 15:17:57;;;;;;;18.87;12.17;;;;;;;23.34;15.60;99671.44;6971330;28;20734;-77
2022/03/26 15:21:20;;;;;;;17.10;13.27;;;;;;;22.75;16.21;99678.13;6971587;28;20209;-76
2022/03/26 15:24:42;;;;;;;17.63;11.70;;;;;;;24.31;16.16;99685.34;6971737;28;20306;-77
2022/03/26 15:28:04;;;;;;;14.40;11.47;;;;;;;24.34;15.53;99690.28;6970140;28;20222;-76
2022/03/26 15:31:26;;;;;;;15.33;11.77;;;;;;;23.54;16.70;99685.28;6971457;28;20267;-76
2022/03/26 15:34:48;;;;;;;14.30;12.03;;;;;;;23.37;16.36;99673.63;6971256;28;20204;-77
2022/03/26 15:38:11;;;;;;;17.80;12.20;;;;;;;23.34;17.20;99693.44;6970798;28;20225;-76
2022/03/26 15:41:32;;;;;;;15.23;12.00;;;;;;;23.32;17.26;99690.13;6971126;28;20214;-77
2022/03/26 15:44:54;;;;;;;15.77;11.80;;;;;;;23.16;17.40;99680.13;6970778;28;20210;-77
2022/03/26 15:48:15;;;;;;;14.67;11.57;;;;;;;23.87;16.85;99690.44;6970285;28;20233;-76
2022/03/26 15:51:38;;;;;;;19.90;11.67;;;;;;;24.04;17.08;99685.53;6970504;28;20202;-77
2022/03/26 15:55:01;;;;;;;15.73;11.80;;;;;;;22.92;17.33;99697.22;6970583;28;20230;-76
2022/03/26 15:58:25;;;;;;;14.83;11.23;;;;;;;23.60;17.28;99692.47;6970367;28;20269;-76
2022/03/26 16:01:48;;;;;;;14.30;11.47;;;;;;;23.18;18.39;99680.69;6970527;28;20264;-77
2022/03/26 16:05:10;;;;;;;18.13;12.13;;;;;;;23.67;17.60;99695.00;6970533;28;20218;-76
2022/03/26 16:08:33;;;;;;;17.33;11.87;;;;;;;23.82;17.44;99687.63;6969506;28;20324;-76
2022/03/26 16:11:55;;;;;;;16.27;11.97;;;;;;;23.98;16.99;99685.78;6970570;28;20689;-77
2022/03/26 16:15:17;;;;;;;38.63;24.13;;;;;;;22.43;17.07;99693.75;6970447;28;20198;-76
2022/03/26 16:18:39;;;;;;;17.47;11.37;;;;;;;22.89;16.87;99695.84;6969482;28;20314;-77
2022/03/26 16:22:00;;;;;;;17.97;12.00;;;;;;;22.11;17.69;99694.75;6970079;28;20204;-76
2022/03/26 16:25:22;;;;;;;13.50;11.07;;;;;;;23.06;17.08;99696.53;6969866;28;20555;-77
2022/03/26 16:28:45;;;;;;;13.53;11.13;;;;;;;23.68;17.02;99685.63;6969643;28;20708;-75
2022/03/26 16:32:07;;;;;;;15.93;12.10;;;;;;;22.82;16.88;99697.97;6970230;28;20203;-77
2022/03/26 16:35:29;;;;;;;15.80;11.87;;;;;;;22.18;17.95;99711.91;6969467;28;20251;-76
2022/03/26 16:38:51;;;;;;;17.70;12.00;;;;;;;22.72;17.13;99706.13;6968748;28;20223;-76
2022/03/26 16:42:12;;;;;;;15.00;11.27;;;;;;;22.64;17.80;99711.28;6969343;28;20212;-76
2022/03/26 16:45:35;;;;;;;17.13;11.40;;;;;;;23.43;17.29;99710.28;6969216;28;20224;-77
2022/03/26 16:48:57;;;;;;;15.77;11.00;;;;;;;23.52;17.27;99712.28;6968976;28;20237;-76
2022/03/26 16:52:18;;;;;;;17.53;11.27;;;;;;;23.11;17.00;99713.06;6969021;28;20663;-77
2022/03/26 16:55:40;;;;;;;12.97;10.00;;;;;;;22.99;16.91;99706.91;6967838;28;20236;-77
2022/03/26 16:59:01;;;;;;;16.53;9.77;;;;;;;23.26;16.75;99702.19;6968780;28;20383;-77
2022/03/26 17:02:24;;;;;;;12.43;10.03;;;;;;;23.19;16.28;99711.78;6969378;28;20216;-78
2022/03/26 17:05:48;;;;;;;13.17;9.70;;;;;;;23.02;16.06;99720.13;6968651;28;20236;-78
2022/03/26 17:09:09;;;;;;;16.13;9.60;;;;;;;23.08;16.26;99713.56;6968543;28;20230;-77
2022/03/26 17:12:31;;;;;;;12.93;9.97;;;;;;;23.42;15.63;99725.97;6969007;28;20220;-77
2022/03/26 17:15:53;;;;;;;25.07;9.97;;;;;;;23.73;15.84;99715.97;6968674;28;20376;-77